Time,TemperatureF,DewpointF,PressureIn,WindDirection,WindDirectionDegrees,WindSpeedMPH,WindSpeedGustMPH,Humidity,HourlyPrecipIn,Conditions,Clouds,dailyrainin,SoftwareType,DateUTC
2013-11-17 00:23:00,44.0,39.0,29.32,North,-999,-999.0,-999.0,84,-99.99,,,-99.99,,2013-11-17 06:23:00,
2013-11-17 00:32:00,44.0,39.0,29.32,North,-999,-999.0,-999.0,84,-99.99,,,-99.99,,2013-11-17 06:32:00,
2013-11-17 00:42:00,44.0,39.0,29.32,North,-999,-999.0,-999.0,84,-99.99,,,-99.99,,2013-11-17 06:42:00,
2013-11-17 00:52:00,43.0,38.0,29.32,North,-999,-999.0,-999.0,84,-99.99,,,-99.99,,2013-11-17 06:52:00,
2013-11-17 01:12:00,43.0,38.0,29.32,North,-999,-999.0,-999.0,84,-99.99,,,-99.99,,2013-11-17 07:12:00,
2013-11-17 01:22:00,43.0,38.0,29.32,North,-999,-999.0,-999.0,84,-99.99,,,-99.99,,2013-11-17 07:22:00,
2013-11-17 01:42:00,44.0,39.0,29.29,North,-999,-999.0,-999.0,84,-99.99,,,-99.99,,2013-11-17 07:42:00,
2013-11-17 01:53:00,43.0,39.0,29.32,North,-999,-999.0,-999.0,86,-99.99,,,-99.99,,2013-11-17 07:53:00,
2013-11-17 02:12:00,42.0,38.0,29.32,North,-999,-999.0,-999.0,86,-99.99,,,-99.99,,2013-11-17 08:12:00,
2013-11-17 02:22:00,42.0,38.0,29.32,North,-999,-999.0,-999.0,86,-99.99,,,-99.99,,2013-11-17 08:22:00,
2013-11-17 02:42:00,42.0,39.0,29.32,North,-999,-999.0,-999.0,88,-99.99,,,-99.99,,2013-11-17 08:42:00,
2013-11-17 02:52:00,42.0,39.0,29.29,North,-999,-999.0,-999.0,89,-99.99,,,-99.99,,2013-11-17 08:52:00,
2013-11-17 03:12:00,42.0,39.0,29.29,North,-999,-999.0,-999.0,88,-99.99,,,-99.99,,2013-11-17 09:12:00,
2013-11-17 03:22:00,42.0,39.0,29.32,North,-999,-999.0,-999.0,88,-99.99,,,-99.99,,2013-11-17 09:22:00,
2013-11-17 03:42:00,43.0,39.0,29.32,North,-999,-999.0,-999.0,87,-99.99,,,-99.99,,2013-11-17 09:42:00,
2013-11-17 03:54:00,42.0,38.0,29.32,North,-999,-999.0,-999.0,87,-99.99,,,-99.99,,2013-11-17 09:54:00,
2013-11-17 04:13:00,43.0,39.0,29.32,North,-999,-999.0,-999.0,87,-99.99,,,-99.99,,2013-11-17 10:13:00,
2013-11-17 04:23:00,44.0,40.0,29.32,North,-999,-999.0,-999.0,87,-99.99,,,-99.99,,2013-11-17 10:23:00,
2013-11-17 04:42:00,45.0,41.0,29.29,North,-999,-999.0,-999.0,86,-99.99,,,-99.99,,2013-11-17 10:42:00,
2013-11-17 04:53:00,45.0,41.0,29.29,North,-999,-999.0,-999.0,87,-99.99,,,-99.99,,2013-11-17 10:53:00,
2013-11-17 05:12:00,46.0,42.0,29.29,North,-999,-999.0,-999.0,87,-99.99,,,-99.99,,2013-11-17 11:12:00,
2013-11-17 05:23:00,46.0,42.0,29.29,North,-999,-999.0,-999.0,87,-99.99,,,-99.99,,2013-11-17 11:23:00,
2013-11-17 05:43:00,46.0,42.0,29.29,North,-999,-999.0,-999.0,87,-99.99,,,-99.99,,2013-11-17 11:43:00,
2013-11-17 05:52:00,46.0,42.0,29.26,North,-999,-999.0,-999.0,87,-99.99,,,-99.99,,2013-11-17 11:52:00,
2013-11-17 06:11:00,46.0,42.0,29.26,North,-999,-999.0,-999.0,87,-99.99,,,-99.99,,2013-11-17 12:11:00,
2013-11-17 06:22:00,46.0,43.0,29.26,North,-999,-999.0,-999.0,89,-99.99,,,-99.99,,2013-11-17 12:22:00,
2013-11-17 06:42:00,46.0,43.0,29.26,North,-999,-999.0,-999.0,89,-99.99,,,-99.99,,2013-11-17 12:42:00,
2013-11-17 06:52:00,46.0,43.0,29.26,North,-999,-999.0,-999.0,88,-99.99,,,-99.99,,2013-11-17 12:52:00,
2013-11-17 07:22:00,44.0,41.0,29.23,North,-999,-999.0,-999.0,88,-99.99,,,-99.99,,2013-11-17 13:22:00,
2013-11-17 07:42:00,44.0,41.0,29.23,North,-999,-999.0,-999.0,88,-99.99,,,-99.99,,2013-11-17 13:42:00,
2013-11-17 07:52:00,43.0,40.0,29.23,North,-999,-999.0,-999.0,88,-99.99,,,-99.99,,2013-11-17 13:52:00,
2013-11-17 08:22:00,44.0,41.0,29.23,North,-999,-999.0,-999.0,89,-99.99,,,-99.99,,2013-11-17 14:22:00,
2013-11-17 08:42:00,44.0,41.0,29.23,North,-999,-999.0,-999.0,89,-99.99,,,-99.99,,2013-11-17 14:42:00,
2013-11-17 08:52:00,44.0,40.0,29.23,North,-999,-999.0,-999.0,87,-99.99,,,-99.99,,2013-11-17 14:52:00,
2013-11-17 09:11:00,44.0,40.0,29.26,North,-999,-999.0,-999.0,87,-99.99,,,-99.99,,2013-11-17 15:11:00,
2013-11-17 09:22:00,44.0,40.0,29.26,North,-999,-999.0,-999.0,87,-99.99,,,-99.99,,2013-11-17 15:22:00,
2013-11-17 09:43:00,46.0,38.0,29.26,North,-999,-999.0,-999.0,74,-99.99,,,-99.99,,2013-11-17 15:43:00,
2013-11-17 09:54:00,46.0,38.0,29.26,North,-999,-999.0,-999.0,74,-99.99,,,-99.99,,2013-11-17 15:54:00,
2013-11-17 10:13:00,45.0,36.0,29.26,North,-999,-999.0,-999.0,71,-99.99,,,-99.99,,2013-11-17 16:13:00,
2013-11-17 10:23:00,45.0,36.0,29.29,North,-999,-999.0,-999.0,71,-99.99,,,-99.99,,2013-11-17 16:23:00,
2013-11-17 10:42:00,45.0,38.0,29.26,North,-999,-999.0,-999.0,77,-99.99,,,-99.99,,2013-11-17 16:42:00,
2013-11-17 10:53:00,45.0,38.0,29.26,North,-999,-999.0,-999.0,77,-99.99,,,-99.99,,2013-11-17 16:53:00,
2013-11-17 11:03:00,45.0,38.0,29.26,North,-999,-999.0,-999.0,77,-99.99,,,-99.99,,2013-11-17 17:03:00,
2013-11-17 11:12:00,45.0,38.0,29.26,North,-999,-999.0,-999.0,77,-99.99,,,-99.99,,2013-11-17 17:12:00,
2013-11-17 11:22:00,45.0,38.0,29.26,North,-999,-999.0,-999.0,77,-99.99,,,-99.99,,2013-11-17 17:22:00,
2013-11-17 12:42:00,47.0,41.0,29.23,North,-999,-999.0,-999.0,80,-99.99,,,-99.99,,2013-11-17 18:42:00,
2013-11-17 12:52:00,45.0,40.0,29.23,North,-999,-999.0,-999.0,83,-99.99,,,-99.99,,2013-11-17 18:52:00,
2013-11-17 13:12:00,45.0,41.0,29.23,North,-999,-999.0,-999.0,86,-99.99,,,-99.99,,2013-11-17 19:12:00,
2013-11-17 13:22:00,45.0,40.0,29.23,North,-999,-999.0,-999.0,84,-99.99,,,-99.99,,2013-11-17 19:22:00,
2013-11-17 13:42:00,45.0,40.0,29.23,North,-999,-999.0,-999.0,84,-99.99,,,-99.99,,2013-11-17 19:42:00,
2013-11-17 13:52:00,46.0,41.0,29.23,North,-999,-999.0,-999.0,82,-99.99,,,-99.99,,2013-11-17 19:52:00,
2013-11-17 14:12:00,44.0,39.0,29.23,North,-999,-999.0,-999.0,84,-99.99,,,-99.99,,2013-11-17 20:12:00,
2013-11-17 14:22:00,44.0,40.0,29.23,North,-999,-999.0,-999.0,86,-99.99,,,-99.99,,2013-11-17 20:22:00,
2013-11-17 14:43:00,44.0,40.0,29.23,North,-999,-999.0,-999.0,86,-99.99,,,-99.99,,2013-11-17 20:43:00,
2013-11-17 14:52:00,44.0,39.0,29.26,North,-999,-999.0,-999.0,83,-99.99,,,-99.99,,2013-11-17 20:52:00,
2013-11-17 15:12:00,43.0,38.0,29.29,North,-999,-999.0,-999.0,82,-99.99,,,-99.99,,2013-11-17 21:12:00,
2013-11-17 15:22:00,43.0,38.0,29.29,North,-999,-999.0,-999.0,82,-99.99,,,-99.99,,2013-11-17 21:22:00,
2013-11-17 15:44:00,43.0,38.0,29.36,North,-999,-999.0,-999.0,81,-99.99,,,-99.99,,2013-11-17 21:44:00,
2013-11-17 15:55:00,43.0,37.0,29.36,North,-999,-999.0,-999.0,80,-99.99,,,-99.99,,2013-11-17 21:55:00,
2013-11-17 16:14:00,44.0,38.0,29.36,North,-999,-999.0,-999.0,78,-99.99,,,-99.99,,2013-11-17 22:14:00,
2013-11-17 16:24:00,44.0,37.0,29.39,North,-999,-999.0,-999.0,77,-99.99,,,-99.99,,2013-11-17 22:24:00,
2013-11-17 16:43:00,44.0,37.0,29.39,North,-999,-999.0,-999.0,77,-99.99,,,-99.99,,2013-11-17 22:43:00,
2013-11-17 16:53:00,44.0,37.0,29.41,North,-999,-999.0,-999.0,76,-99.99,,,-99.99,,2013-11-17 22:53:00,
2013-11-17 17:12:00,44.0,37.0,29.41,North,-999,-999.0,-999.0,76,-99.99,,,-99.99,,2013-11-17 23:12:00,
2013-11-17 17:23:00,44.0,36.0,29.44,North,-999,-999.0,-999.0,74,-99.99,,,-99.99,,2013-11-17 23:23:00,
2013-11-17 17:42:00,44.0,36.0,29.44,North,-999,-999.0,-999.0,74,-99.99,,,-99.99,,2013-11-17 23:42:00,
2013-11-17 17:52:00,44.0,35.0,29.48,North,-999,-999.0,-999.0,71,-99.99,,,-99.99,,2013-11-17 23:52:00,
2013-11-17 18:11:00,43.0,35.0,29.48,North,-999,-999.0,-999.0,72,-99.99,,,-99.99,,2013-11-18 00:11:00,
2013-11-17 18:21:00,44.0,36.0,29.51,North,-999,-999.0,-999.0,72,-99.99,,,-99.99,,2013-11-18 00:21:00,
2013-11-17 18:42:00,43.0,35.0,29.51,North,-999,-999.0,-999.0,72,-99.99,,,-99.99,,2013-11-18 00:42:00,
2013-11-17 18:52:00,43.0,34.0,29.51,North,-999,-999.0,-999.0,71,-99.99,,,-99.99,,2013-11-18 00:52:00,
2013-11-17 19:11:00,42.0,33.0,29.51,North,-999,-999.0,-999.0,69,-99.99,,,-99.99,,2013-11-18 01:11:00,
2013-11-17 19:22:00,41.0,32.0,29.54,North,-999,-999.0,-999.0,70,-99.99,,,-99.99,,2013-11-18 01:22:00,
2013-11-17 19:42:00,41.0,32.0,29.54,North,-999,-999.0,-999.0,71,-99.99,,,-99.99,,2013-11-18 01:42:00,
2013-11-17 19:52:00,41.0,33.0,29.57,North,-999,-999.0,-999.0,72,-99.99,,,-99.99,,2013-11-18 01:52:00,
2013-11-17 20:11:00,41.0,32.0,29.57,North,-999,-999.0,-999.0,69,-99.99,,,-99.99,,2013-11-18 02:11:00,
2013-11-17 20:21:00,40.0,30.0,29.57,North,-999,-999.0,-999.0,68,-99.99,,,-99.99,,2013-11-18 02:21:00,
2013-11-17 20:42:00,40.0,30.0,29.59,North,-999,-999.0,-999.0,68,-99.99,,,-99.99,,2013-11-18 02:42:00,
2013-11-17 20:52:00,40.0,30.0,29.59,North,-999,-999.0,-999.0,66,-99.99,,,-99.99,,2013-11-18 02:52:00,
2013-11-17 21:22:00,40.0,30.0,29.59,North,-999,-999.0,-999.0,66,-99.99,,,-99.99,,2013-11-18 03:22:00,
2013-11-17 21:44:00,40.0,30.0,29.59,North,-999,-999.0,-999.0,66,-99.99,,,-99.99,,2013-11-18 03:44:00,
2013-11-17 21:54:00,39.0,28.0,29.63,North,-999,-999.0,-999.0,64,-99.99,,,-99.99,,2013-11-18 03:54:00,
2013-11-17 22:03:00,39.0,28.0,29.63,North,-999,-999.0,-999.0,64,-99.99,,,-99.99,,2013-11-18 04:03:00,
2013-11-17 22:13:00,39.0,28.0,29.63,North,-999,-999.0,-999.0,64,-99.99,,,-99.99,,2013-11-18 04:13:00,
2013-11-17 22:23:00,39.0,28.0,29.63,North,-999,-999.0,-999.0,64,-99.99,,,-99.99,,2013-11-18 04:23:00,
2013-11-17 22:33:00,39.0,28.0,29.63,North,-999,-999.0,-999.0,64,-99.99,,,-99.99,,2013-11-18 04:33:00,
2013-11-17 22:52:00,38.0,27.0,29.66,North,-999,-999.0,-999.0,63,-99.99,,,-99.99,,2013-11-18 04:52:00,
2013-11-17 23:12:00,37.0,26.0,29.69,North,-999,-999.0,-999.0,64,-99.99,,,-99.99,,2013-11-18 05:12:00,
2013-11-17 23:22:00,37.0,27.0,29.69,North,-999,-999.0,-999.0,66,-99.99,,,-99.99,,2013-11-18 05:22:00,
2013-11-17 23:43:00,36.0,25.0,29.69,North,-999,-999.0,-999.0,65,-99.99,,,-99.99,,2013-11-18 05:43:00,
2013-11-17 23:53:00,36.0,25.0,29.69,North,-999,-999.0,-999.0,65,-99.99,,,-99.99,,2013-11-18 05:53:00,